createdAt,value
2022-09-20T00:01:20.061Z,100
2022-09-20T00:15:50.743Z,100
2022-09-20T00:30:21.205Z,100
2022-09-20T00:44:50.404Z,100
2022-09-20T00:59:20.139Z,100
2022-09-20T01:14:03.141Z,100
2022-09-20T01:28:25.266Z,98.5
2022-09-20T01:42:54.938Z,100
2022-09-20T01:57:27.763Z,98.8
2022-09-20T02:11:54.030Z,98.1
2022-09-20T02:26:24.899Z,100
2022-09-20T02:40:53.262Z,98.9
2022-09-20T02:55:24.427Z,98.5
2022-09-20T03:10:01.508Z,98.6
2022-09-20T03:24:33.910Z,100
2022-09-20T03:39:01.183Z,100
2022-09-20T03:53:30.081Z,100
2022-09-20T04:08:00.822Z,100
2022-09-20T04:22:32.157Z,100
2022-09-20T04:37:03.902Z,100
2022-09-20T04:51:35.285Z,100
2022-09-20T05:06:05.731Z,100
2022-09-20T05:20:36.313Z,100
2022-09-20T05:35:06.695Z,100
2022-09-20T05:49:37.542Z,100
2022-09-20T06:04:05.591Z,100
2022-09-20T06:18:37.867Z,100
2022-09-20T06:33:09.097Z,100
2022-09-20T06:47:39.763Z,100
2022-09-20T07:02:10.890Z,100
2022-09-20T07:16:43.230Z,100
2022-09-20T07:31:15.467Z,100
2022-09-20T07:45:46.265Z,100
2022-09-20T08:00:18.747Z,100
2022-09-20T08:14:52.575Z,100
2022-09-20T08:29:28.964Z,90.1
2022-09-20T08:43:55.638Z,91.7
2022-09-20T08:58:35.279Z,78
2022-09-20T09:13:02.388Z,83.5
2022-09-20T09:27:30.617Z,77.9
2022-09-20T09:42:05.918Z,71
2022-09-20T09:56:37.612Z,70.4
2022-09-20T10:11:05.587Z,69.1
2022-09-20T10:25:37.758Z,66.9
2022-09-20T10:40:04.765Z,81.2
2022-09-20T10:54:33.994Z,80.2
2022-09-20T11:09:03.555Z,80.9
2022-09-20T11:23:35.876Z,78.7
2022-09-20T11:38:07.568Z,75.3
2022-09-20T11:52:37.624Z,72.6
2022-09-20T12:07:17.937Z,67
2022-09-20T12:21:49.821Z,67.5
2022-09-20T12:36:19.834Z,65.2
2022-09-20T12:50:46.440Z,64
2022-09-20T13:05:16.953Z,67.2
2022-09-20T13:19:47.826Z,68.7
2022-09-20T13:34:23.809Z,67.7
2022-09-20T13:48:51.171Z,67.4
2022-09-20T14:03:21.325Z,66.5
2022-09-20T14:17:52.132Z,69.2
2022-09-20T14:32:23.124Z,69.5
2022-09-20T14:46:53.151Z,68.8
2022-09-20T15:01:24.194Z,68
2022-09-20T15:15:52.755Z,65.8
2022-09-20T15:30:23.693Z,64.6
2022-09-20T15:44:54.075Z,64.6
2022-09-20T16:13:59.834Z,66.5
2022-09-20T16:28:31.531Z,67.1
2022-09-20T16:43:02.680Z,69.3
2022-09-20T16:57:32.184Z,71.5
2022-09-20T17:12:01.726Z,73.8
2022-09-20T17:26:31.696Z,76.9
2022-09-20T17:41:02.030Z,79.8
2022-09-20T17:55:31.399Z,81.6
2022-09-20T18:10:02.825Z,85.2
2022-09-20T18:24:31.477Z,84.3
2022-09-20T18:39:00.543Z,84.4
2022-09-20T18:53:31.977Z,84.2
2022-09-20T19:08:01.207Z,84.3
2022-09-20T19:22:31.768Z,83.9
2022-09-20T19:37:02.414Z,86.6
2022-09-20T19:51:33.365Z,86.7
2022-09-20T20:06:08.517Z,86.3
2022-09-20T20:20:35.571Z,90.7
2022-09-20T20:35:05.894Z,90.1
2022-09-20T20:49:37.025Z,89.8
2022-09-20T21:04:07.548Z,91.3
2022-09-20T21:18:36.513Z,92.3
2022-09-20T21:33:06.519Z,96.9
2022-09-20T21:47:37.895Z,93.6
2022-09-20T22:02:12.064Z,98.4
2022-09-20T22:16:39.807Z,98.4
2022-09-20T22:31:14.901Z,94.4
2022-09-20T22:45:47.593Z,96.4
2022-09-20T23:00:12.484Z,95.9
2022-09-20T23:14:42.784Z,97.1
2022-09-20T23:29:13.990Z,97.2
2022-09-20T23:43:45.278Z,99.2
2022-09-20T23:58:13.926Z,97.6
